Time;durP1;ratioP1;P1;durP2;ratioP2;P2;SDS_P1;SDS_P2;PMS_P1;PMS_P2;Temp;Humidity;BMP_temperature;BMP_pressure;BME280_temperature;BME280_humidity;BME280_pressure;Samples;Min_cycle;Max_cycle;Signal;HPM_P1;HPM_P2
2022/11/23 00:01:19;;;;;;;;;;;;;;;;;;5029611;28;20008;-84
2022/11/23 00:03:45;;;;;;;;;;;;;;;;;;5036491;28;19956;-84
2022/11/23 00:06:11;;;;;;;;;;;;;;;;;;5038938;28;19917;-85
2022/11/23 00:08:36;;;;;;;;;;;;;;;;;;5036896;28;19971;-85
2022/11/23 00:11:02;;;;;;;;;;;;;;;;;;5038733;28;19948;-84
2022/11/23 00:13:27;;;;;;;;;;;;;;;;;;5037261;28;19921;-84
2022/11/23 00:15:52;;;;;;;;;;;;;;;;;;5036918;28;20069;-84
2022/11/23 00:18:18;;;;;;;;;;;;;;;;;;5036619;28;19917;-84
2022/11/23 00:20:44;;;;;;;;;;;;;;;;;;5037728;28;20301;-85
2022/11/23 00:23:09;;;;;;;;;;;;;;;;;;5037937;28;19924;-86
2022/11/23 00:25:35;;;;;;;;;;;;;;;;;;5037924;28;19918;-85
2022/11/23 00:28:00;;;;;;;;;;;;;;;;;;5038491;28;19921;-84
2022/11/23 00:30:26;;;;;;;;;;;;;;;;;;5036849;28;20403;-85
2022/11/23 00:32:51;;;;;;;;;;;;;;;;;;5037268;28;19917;-84
2022/11/23 00:35:17;;;;;;;;;;;;;;;;;;5037387;28;19970;-85
2022/11/23 00:37:42;;;;;;;;;;;;;;;;;;5037444;28;19924;-83
2022/11/23 00:40:08;;;;;;;;;;;;;;;;;;5038178;28;20422;-84
2022/11/23 00:42:33;;;;;;;;;;;;;;;;;;5018854;28;19920;-84
2022/11/23 00:44:59;;;;;;;;;;;;;;;;;;5019354;28;19917;-85
2022/11/23 00:47:24;;;;;;;;;;;;;;;;;;5036203;28;19917;-85
2022/11/23 00:49:49;;;;;;;;;;;;;;;;;;5036676;28;20246;-84
2022/11/23 00:52:15;;;;;;;;;;;;;;;;;;5037783;28;19917;-85
2022/11/23 00:54:40;;;;;;;;;;;;;;;;;;5019440;28;20341;-84
2022/11/23 00:57:05;;;;;;;;;;;;;;;;;;5019518;28;19917;-85
2022/11/23 00:59:31;;;;;;;;;;;;;;;;;;5037407;28;19917;-85
2022/11/23 01:01:56;;;;;;;;;;;;;;;;;;5019779;28;20391;-85
2022/11/23 01:04:22;;;;;;;;;;;;;;;;;;5020280;28;19917;-84
2022/11/23 01:06:47;;;;;;;;;;;;;;;;;;5019326;28;19918;-84
2022/11/23 01:09:16;;;;;;;;;;;;;;;;;;5036781;28;20482;-83
2022/11/23 01:11:41;;;;;;;;;;;;;;;;;;5026898;28;19901;-85
2022/11/23 01:14:06;;;;;;;;;;;;;;;;;;5051652;28;19923;-83
2022/11/23 01:16:33;;;;;;;;;;;;;;;;;;5033930;28;19917;-85
2022/11/23 01:19:00;;;;;;;;;;;;;;;;;;5048054;28;19947;-86
2022/11/23 01:21:27;;;;;;;;;;;;;;;;;;5044882;28;19923;-84
2022/11/23 01:23:53;;;;;;;;;;;;;;;;;;5024683;28;19917;-84
2022/11/23 01:26:18;;;;;;;;;;;;;;;;;;5034534;28;19971;-84
2022/11/23 01:28:43;;;;;;;;;;;;;;;;;;5032745;28;20373;-84
2022/11/23 01:31:10;;;;;;;;;;;;;;;;;;5024747;28;20397;-83
2022/11/23 01:33:36;;;;;;;;;;;;;;;;;;5019581;28;19933;-84
2022/11/23 01:36:08;;;;;;;;;;;;;;;;;;5025643;28;19921;-85
2022/11/23 01:38:33;;;;;;;;;;;;;;;;;;5024099;28;19921;-84
2022/11/23 01:40:59;;;;;;;;;;;;;;;;;;5032288;28;20428;-84
2022/11/23 01:43:24;;;;;;;;;;;;;;;;;;5032892;28;19923;-85
2022/11/23 01:45:57;;;;;;;;;;;;;;;;;;5023303;28;20250;-83
2022/11/23 01:48:25;;;;;;;;;;;;;;;;;;5027144;28;19958;-85
2022/11/23 01:50:51;;;;;;;;;;;;;;;;;;5022566;28;19917;-85
2022/11/23 01:53:16;;;;;;;;;;;;;;;;;;5031239;28;19917;-84
2022/11/23 01:55:43;;;;;;;;;;;;;;;;;;5036032;28;20440;-84
2022/11/23 01:58:10;;;;;;;;;;;;;;;;;;5017356;28;19921;-86
2022/11/23 02:00:35;;;;;;;;;;;;;;;;;;5016347;28;20855;-84
2022/11/23 02:03:03;;;;;;;;;;;;;;;;;;5023497;28;19921;-86
2022/11/23 02:05:32;;;;;;;;;;;;;;;;;;5020893;28;19949;-86
2022/11/23 02:07:59;;;;;;;;;;;;;;;;;;5023743;28;20015;-84
2022/11/23 02:10:24;;;;;;;;;;;;;;;;;;5033401;28;19964;-84
2022/11/23 02:12:49;;;;;;;;;;;;;;;;;;5030134;28;19917;-84
2022/11/23 02:15:15;;;;;;;;;;;;;;;;;;5028243;28;19921;-85
2022/11/23 02:17:42;;;;;;;;;;;;;;;;;;5033581;28;19928;-85
2022/11/23 02:20:09;;;;;;;;;;;;;;;;;;5019295;28;19924;-85
2022/11/23 02:22:58;;;;;;;;;;;;;;;;;;5033459;28;19917;-85
2022/11/23 02:25:37;;;;;;;;;;;;;;;;;;5020630;28;19924;-84
2022/11/23 02:28:02;;;;;;;;;;;;;;;;;;5027475;28;19917;-84
2022/11/23 02:30:29;;;;;;;;;;;;;;;;;;5027287;28;19928;-84
2022/11/23 02:32:55;;;;;;;;;;;;;;;;;;5034649;28;20377;-84
2022/11/23 02:35:20;;;;;;;;;;;;;;;;;;5019883;28;19924;-85
2022/11/23 02:37:46;;;;;;;;;;;;;;;;;;5030436;28;19987;-85
2022/11/23 02:40:19;;;;;;;;;;;;;;;;;;5033224;28;20320;-84
2022/11/23 02:42:45;;;;;;;;;;;;;;;;;;5032108;28;20016;-85
2022/11/23 02:45:31;;;;;;;;;;;;;;;;;;5018163;28;19996;-84
2022/11/23 02:47:56;;;;;;;;;;;;;;;;;;4994639;28;19928;-85
2022/11/23 02:50:21;;;;;;;;;;;;;;;;;;5023937;28;19917;-84
2022/11/23 02:52:47;;;;;;;;;;;;;;;;;;5020428;28;19925;-85
2022/11/23 02:55:12;;;;;;;;;;;;;;;;;;5029663;28;19932;-84
2022/11/23 02:57:38;;;;;;;;;;;;;;;;;;5018048;28;19983;-84
2022/11/23 03:00:03;;;;;;;;;;;;;;;;;;5018510;28;19963;-84
2022/11/23 03:02:29;;;;;;;;;;;;;;;;;;5028229;28;20377;-84
2022/11/23 03:04:54;;;;;;;;;;;;;;;;;;5040919;28;19917;-84
2022/11/23 03:07:19;;;;;;;;;;;;;;;;;;5038719;28;20357;-84
2022/11/23 03:09:45;;;;;;;;;;;;;;;;;;5015981;28;20448;-84
2022/11/23 03:12:10;;;;;;;;;;;;;;;;;;5029884;28;19913;-85
2022/11/23 03:14:37;;;;;;;;;;;;;;;;;;5020466;28;20270;-85
2022/11/23 03:17:03;;;;;;;;;;;;;;;;;;5034299;28;19920;-85
2022/11/23 03:19:28;;;;;;;;;;;;;;;;;;5035409;28;19913;-85
2022/11/23 03:21:54;;;;;;;;;;;;;;;;;;5036163;28;20656;-84
2022/11/23 03:24:19;;;;;;;;;;;;;;;;;;5033741;28;19925;-85
2022/11/23 03:26:44;;;;;;;;;;;;;;;;;;5033535;28;20008;-84
2022/11/23 03:29:10;;;;;;;;;;;;;;;;;;5016767;28;19917;-84
2022/11/23 03:31:35;;;;;;;;;;;;;;;;;;5019779;28;20264;-85
2022/11/23 03:34:01;;;;;;;;;;;;;;;;;;5021670;28;19956;-85
2022/11/23 03:36:26;;;;;;;;;;;;;;;;;;5034529;28;20372;-84
2022/11/23 03:38:52;;;;;;;;;;;;;;;;;;5035938;28;19967;-86
2022/11/23 03:41:17;;;;;;;;;;;;;;;;;;5033769;28;19929;-84
2022/11/23 03:43:42;;;;;;;;;;;;;;;;;;5034486;28;19917;-86
2022/11/23 03:46:08;;;;;;;;;;;;;;;;;;5023063;28;19963;-86
2022/11/23 03:48:33;;;;;;;;;;;;;;;;;;5036061;28;20343;-84
2022/11/23 03:50:58;;;;;;;;;;;;;;;;;;5028846;28;19923;-85
2022/11/23 03:53:24;;;;;;;;;;;;;;;;;;5022764;28;19921;-85
2022/11/23 03:55:49;;;;;;;;;;;;;;;;;;5034737;28;19963;-86
2022/11/23 03:58:14;;;;;;;;;;;;;;;;;;5036341;28;19939;-85
2022/11/23 04:00:40;;;;;;;;;;;;;;;;;;5031138;28;19932;-84
2022/11/23 04:03:05;;;;;;;;;;;;;;;;;;5033458;28;20360;-84
2022/11/23 04:05:31;;;;;;;;;;;;;;;;;;5033664;28;20431;-84
2022/11/23 04:07:56;;;;;;;;;;;;;;;;;;5031076;28;19932;-84
2022/11/23 04:10:22;;;;;;;;;;;;;;;;;;5033007;28;20134;-86
2022/11/23 04:12:51;;;;;;;;;;;;;;;;;;5032499;28;20027;-84
2022/11/23 04:15:16;;;;;;;;;;;;;;;;;;5011941;28;19918;-85
2022/11/23 04:17:42;;;;;;;;;;;;;;;;;;5031529;28;21158;-84
2022/11/23 04:20:07;;;;;;;;;;;;;;;;;;5032483;28;19936;-83
2022/11/23 04:22:33;;;;;;;;;;;;;;;;;;5031151;28;19921;-84
2022/11/23 04:24:58;;;;;;;;;;;;;;;;;;5014274;28;20273;-85
2022/11/23 04:27:24;;;;;;;;;;;;;;;;;;5032750;28;19969;-87
2022/11/23 04:29:49;;;;;;;;;;;;;;;;;;5016943;28;20373;-85
2022/11/23 04:32:15;;;;;;;;;;;;;;;;;;5034791;28;20364;-86
2022/11/23 04:34:40;;;;;;;;;;;;;;;;;;5029187;28;19967;-84
2022/11/23 04:37:06;;;;;;;;;;;;;;;;;;5036136;28;20292;-86
2022/11/23 04:39:31;;;;;;;;;;;;;;;;;;5036216;28;20514;-85
2022/11/23 04:41:56;;;;;;;;;;;;;;;;;;5038436;28;19924;-87
2022/11/23 04:44:22;;;;;;;;;;;;;;;;;;5036308;28;19963;-87
2022/11/23 04:46:49;;;;;;;;;;;;;;;;;;5034207;28;20008;-86
2022/11/23 04:49:14;;;;;;;;;;;;;;;;;;5034342;28;20372;-87
2022/11/23 04:51:40;;;;;;;;;;;;;;;;;;5035101;28;19974;-86
2022/11/23 04:54:05;;;;;;;;;;;;;;;;;;5036388;28;20380;-85
2022/11/23 04:56:30;;;;;;;;;;;;;;;;;;5036784;28;19921;-84
2022/11/23 04:58:56;;;;;;;;;;;;;;;;;;5039410;28;19918;-85
2022/11/23 05:01:21;;;;;;;;;;;;;;;;;;5027688;28;19917;-86
2022/11/23 05:03:47;;;;;;;;;;;;;;;;;;5037624;28;19917;-87
2022/11/23 05:06:12;;;;;;;;;;;;;;;;;;5041278;28;19917;-85
2022/11/23 05:08:38;;;;;;;;;;;;;;;;;;5035112;28;20004;-83
2022/11/23 05:11:03;;;;;;;;;;;;;;;;;;5050161;28;19921;-86
2022/11/23 05:13:29;;;;;;;;;;;;;;;;;;5044961;28;19917;-84
2022/11/23 05:15:54;;;;;;;;;;;;;;;;;;5043893;28;19917;-86
2022/11/23 05:18:20;;;;;;;;;;;;;;;;;;5035826;28;19921;-87
2022/11/23 05:20:45;;;;;;;;;;;;;;;;;;5040714;28;20300;-85
2022/11/23 05:23:11;;;;;;;;;;;;;;;;;;5026854;28;19944;-83
2022/11/23 05:25:36;;;;;;;;;;;;;;;;;;5041607;28;19927;-89
2022/11/23 05:28:02;;;;;;;;;;;;;;;;;;5035490;28;20317;-87
2022/11/23 05:30:27;;;;;;;;;;;;;;;;;;5035939;28;20381;-90
2022/11/23 05:32:53;;;;;;;;;;;;;;;;;;5035934;28;19968;-86
2022/11/23 05:35:18;;;;;;;;;;;;;;;;;;5035378;28;20427;-86
2022/11/23 05:37:43;;;;;;;;;;;;;;;;;;5034888;28;19921;-87
2022/11/23 05:40:10;;;;;;;;;;;;;;;;;;5036368;28;19925;-86
2022/11/23 05:42:35;;;;;;;;;;;;;;;;;;5036539;28;20012;-86
2022/11/23 05:45:01;;;;;;;;;;;;;;;;;;5035847;28;20346;-86
2022/11/23 05:47:26;;;;;;;;;;;;;;;;;;5036536;28;20358;-86
2022/11/23 05:49:52;;;;;;;;;;;;;;;;;;5036372;28;19917;-86
2022/11/23 05:52:17;;;;;;;;;;;;;;;;;;5033895;28;19975;-86
2022/11/23 05:54:43;;;;;;;;;;;;;;;;;;5035152;28;19928;-86
2022/11/23 05:57:09;;;;;;;;;;;;;;;;;;5034290;28;19917;-86
2022/11/23 05:59:34;;;;;;;;;;;;;;;;;;5034574;28;19922;-86
2022/11/23 06:02:00;;;;;;;;;;;;;;;;;;5035613;28;19917;-86
2022/11/23 06:04:25;;;;;;;;;;;;;;;;;;5021423;28;19921;-88
2022/11/23 06:06:53;;;;;;;;;;;;;;;;;;5018970;28;19928;-86
2022/11/23 06:09:18;;;;;;;;;;;;;;;;;;5018464;28;20390;-86
2022/11/23 06:11:44;;;;;;;;;;;;;;;;;;5036101;28;20097;-88
2022/11/23 06:14:09;;;;;;;;;;;;;;;;;;5018917;28;19955;-88
2022/11/23 06:16:35;;;;;;;;;;;;;;;;;;5018958;28;19921;-89
2022/11/23 06:19:00;;;;;;;;;;;;;;;;;;5018811;28;19924;-87
2022/11/23 06:21:25;;;;;;;;;;;;;;;;;;5035613;28;19917;-86
2022/11/23 06:23:51;;;;;;;;;;;;;;;;;;5035480;28;19924;-88
2022/11/23 06:26:16;;;;;;;;;;;;;;;;;;5019024;28;19925;-86
2022/11/23 06:28:42;;;;;;;;;;;;;;;;;;5026779;28;20007;-86
2022/11/23 06:31:08;;;;;;;;;;;;;;;;;;5036026;28;20010;-87
2022/11/23 06:33:34;;;;;;;;;;;;;;;;;;5036610;28;19917;-87
2022/11/23 06:36:00;;;;;;;;;;;;;;;;;;5017990;28;19924;-87
2022/11/23 06:38:26;;;;;;;;;;;;;;;;;;5036214;28;20257;-86
2022/11/23 06:40:51;;;;;;;;;;;;;;;;;;5017758;28;19925;-89
2022/11/23 06:43:17;;;;;;;;;;;;;;;;;;5017613;28;19964;-87
2022/11/23 06:45:46;;;;;;;;;;;;;;;;;;5018528;28;19914;-87
2022/11/23 06:48:11;;;;;;;;;;;;;;;;;;5017987;28;19922;-88
2022/11/23 06:50:37;;;;;;;;;;;;;;;;;;5038658;28;19917;-88
2022/11/23 06:53:06;;;;;;;;;;;;;;;;;;5039869;28;20384;-89
2022/11/23 06:55:31;;;;;;;;;;;;;;;;;;5038772;28;20266;-87
2022/11/23 06:57:59;;;;;;;;;;;;;;;;;;5039080;28;19918;-85
2022/11/23 07:00:25;;;;;;;;;;;;;;;;;;5038778;28;20249;-86
2022/11/23 07:02:51;;;;;;;;;;;;;;;;;;5039158;28;19939;-86
2022/11/23 07:05:20;;;;;;;;;;;;;;;;;;5039963;28;19950;-87
2022/11/23 07:07:45;;;;;;;;;;;;;;;;;;5039448;28;19924;-87
2022/11/23 07:10:12;;;;;;;;;;;;;;;;;;5027300;28;19922;-86
2022/11/23 07:12:41;;;;;;;;;;;;;;;;;;5032228;28;19939;-87
2022/11/23 07:15:07;;;;;;;;;;;;;;;;;;5011050;28;19921;-87
2022/11/23 07:17:32;;;;;;;;;;;;;;;;;;5026812;28;19917;-88
2022/11/23 07:20:00;;;;;;;;;;;;;;;;;;5045908;28;19993;-88
2022/11/23 07:22:26;;;;;;;;;;;;;;;;;;5049611;28;19936;-86
2022/11/23 07:24:54;;;;;;;;;;;;;;;;;;5048488;28;19917;-88
2022/11/23 07:27:19;;;;;;;;;;;;;;;;;;5029209;28;19924;-86
2022/11/23 07:29:44;;;;;;;;;;;;;;;;;;5050011;28;19917;-88
2022/11/23 07:32:10;;;;;;;;;;;;;;;;;;5033165;28;19917;-89
2022/11/23 07:34:35;;;;;;;;;;;;;;;;;;5017602;28;19937;-88
2022/11/23 07:37:08;;;;;;;;;;;;;;;;;;5052498;28;19923;-86
2022/11/23 07:39:34;;;;;;;;;;;;;;;;;;5030585;28;20439;-86
2022/11/23 07:41:59;;;;;;;;;;;;;;;;;;5037102;28;19917;-87
2022/11/23 07:44:24;;;;;;;;;;;;;;;;;;5020292;28;20027;-86
2022/11/23 07:46:53;;;;;;;;;;;;;;;;;;5020944;28;19917;-86
2022/11/23 07:49:18;;;;;;;;;;;;;;;;;;5023536;28;20331;-86
2022/11/23 07:51:43;;;;;;;;;;;;;;;;;;5037940;28;19921;-88
2022/11/23 07:54:09;;;;;;;;;;;;;;;;;;5032321;28;19968;-86
2022/11/23 07:56:34;;;;;;;;;;;;;;;;;;5020901;28;19921;-87
2022/11/23 07:59:00;;;;;;;;;;;;;;;;;;5037992;28;19968;-88
2022/11/23 08:01:25;;;;;;;;;;;;;;;;;;5037971;28;19917;-87
2022/11/23 08:03:51;;;;;;;;;;;;;;;;;;5020719;28;19925;-85
2022/11/23 08:06:16;;;;;;;;;;;;;;;;;;5039301;28;19924;-87
2022/11/23 08:08:42;;;;;;;;;;;;;;;;;;5022665;28;19917;-86
2022/11/23 08:11:08;;;;;;;;;;;;;;;;;;5040091;28;19928;-87
2022/11/23 08:13:34;;;;;;;;;;;;;;;;;;5021257;28;20385;-85
2022/11/23 08:16:00;;;;;;;;;;;;;;;;;;5021412;28;19926;-88
2022/11/23 08:18:25;;;;;;;;;;;;;;;;;;5039103;28;19922;-89
2022/11/23 08:20:51;;;;;;;;;;;;;;;;;;5041630;28;19971;-85
2022/11/23 08:23:16;;;;;;;;;;;;;;;;;;5020674;28;19921;-87
2022/11/23 08:25:42;;;;;;;;;;;;;;;;;;5019927;28;19917;-87
2022/11/23 08:28:07;;;;;;;;;;;;;;;;;;5036556;28;19928;-87
2022/11/23 08:30:33;;;;;;;;;;;;;;;;;;5035425;28;20312;-87
2022/11/23 08:33:01;;;;;;;;;;;;;;;;;;5016898;28;19953;-88
2022/11/23 08:35:26;;;;;;;;;;;;;;;;;;5035981;28;19924;-87
2022/11/23 08:37:52;;;;;;;;;;;;;;;;;;5017190;28;19917;-87
2022/11/23 08:40:17;;;;;;;;;;;;;;;;;;5039637;28;19921;-86
2022/11/23 08:42:43;;;;;;;;;;;;;;;;;;5037835;28;19921;-88
2022/11/23 08:45:09;;;;;;;;;;;;;;;;;;5037202;28;19917;-86
2022/11/23 08:47:35;;;;;;;;;;;;;;;;;;5039275;28;19921;-87
2022/11/23 08:50:00;;;;;;;;;;;;;;;;;;5018401;28;20372;-87
2022/11/23 08:52:26;;;;;;;;;;;;;;;;;;5032671;28;19928;-88
2022/11/23 08:54:51;;;;;;;;;;;;;;;;;;5035713;28;19929;-87
2022/11/23 08:57:17;;;;;;;;;;;;;;;;;;5051690;28;19905;-87
2022/11/23 08:59:42;;;;;;;;;;;;;;;;;;5029518;28;19917;-88
2022/11/23 09:02:12;;;;;;;;;;;;;;;;;;5022168;28;19918;-86
2022/11/23 09:04:38;;;;;;;;;;;;;;;;;;5013594;28;20063;-87
2022/11/23 09:07:04;;;;;;;;;;;;;;;;;;5020800;28;19924;-88
2022/11/23 09:09:29;;;;;;;;;;;;;;;;;;5035510;28;19921;-88
2022/11/23 09:11:54;;;;;;;;;;;;;;;;;;5033657;28;19964;-87
2022/11/23 09:14:21;;;;;;;;;;;;;;;;;;5019332;28;20019;-87
2022/11/23 09:16:46;;;;;;;;;;;;;;;;;;5035337;28;19917;-87
2022/11/23 09:19:12;;;;;;;;;;;;;;;;;;5033878;28;20012;-87
2022/11/23 09:21:41;;;;;;;;;;;;;;;;;;5036159;28;19975;-87
2022/11/23 09:24:07;;;;;;;;;;;;;;;;;;5035559;28;20007;-87
2022/11/23 09:26:33;;;;;;;;;;;;;;;;;;5018258;28;19925;-88
2022/11/23 09:28:58;;;;;;;;;;;;;;;;;;5033145;28;19929;-87
2022/11/23 09:31:27;;;;;;;;;;;;;;;;;;5033753;28;19967;-87
2022/11/23 09:33:53;;;;;;;;;;;;;;;;;;5015985;28;19921;-88
2022/11/23 09:36:18;;;;;;;;;;;;;;;;;;5016393;28;20012;-86
2022/11/23 09:38:43;;;;;;;;;;;;;;;;;;5016606;28;19932;-88
2022/11/23 09:41:18;;;;;;;;;;;;;;;;;;5034221;28;19921;-86
2022/11/23 09:43:59;;;;;;;;;;;;;;;;;;5032590;28;19921;-87
2022/11/23 09:46:34;;;;;;;;;;;;;;;;;;5034874;28;19913;-88
2022/11/23 09:49:07;;;;;;;;;;;;;;;;;;5017793;28;20011;-87
2022/11/23 09:51:34;;;;;;;;;;;;;;;;;;5033403;28;19940;-87
2022/11/23 09:54:23;;;;;;;;;;;;;;;;;;5032425;28;19917;-86
2022/11/23 09:56:50;;;;;;;;;;;;;;;;;;5001018;28;19917;-88
2022/11/23 09:59:33;;;;;;;;;;;;;;;;;;5016224;28;20330;-87
2022/11/23 10:01:59;;;;;;;;;;;;;;;;;;5035295;28;20420;-88
2022/11/23 10:04:25;;;;;;;;;;;;;;;;;;5038145;28;19972;-87
2022/11/23 10:06:56;;;;;;;;;;;;;;;;;;5035280;28;20288;-88
2022/11/23 10:09:57;;;;;;;;;;;;;;;;;;5038346;28;19958;-86
2022/11/23 10:12:40;;;;;;;;;;;;;;;;;;4942097;29;19933;-86
2022/11/23 10:15:27;;;;;;;;;;;;;;;;;;4941414;28;19922;-88
2022/11/23 10:18:03;;;;;;;;;;;;;;;;;;4941967;29;19922;-86
2022/11/23 10:20:47;;;;;;;;;;;;;;;;;;4942479;29;19918;-87
2022/11/23 10:23:17;;;;;;;;;;;;;;;;;;4942976;29;20365;-86
2022/11/23 10:25:47;;;;;;;;;;;;;;;;;;4958462;28;19918;-86
2022/11/23 10:28:14;;;;;;;;;;;;;;;;;;4956306;29;19928;-86
2022/11/23 10:30:40;;;;;;;;;;;;;;;;;;4956768;29;19923;-87
2022/11/23 10:33:24;;;;;;;;;;;;;;;;;;4960328;29;19923;-87
2022/11/23 10:35:49;;;;;;;;;;;;;;;;;;4943174;29;20371;-85
2022/11/23 10:38:16;;;;;;;;;;;;;;;;;;4960191;29;19923;-87
2022/11/23 10:41:00;;;;;;;;;;;;;;;;;;4957426;29;19922;-86
2022/11/23 10:43:28;;;;;;;;;;;;;;;;;;4956983;29;19922;-87
2022/11/23 10:46:13;;;;;;;;;;;;;;;;;;4983801;28;19923;-87
2022/11/23 10:48:39;;;;;;;;;;;;;;;;;;5020640;28;19925;-86
2022/11/23 10:51:15;;;;;;;;;;;;;;;;;;5035641;28;19924;-87
2022/11/23 10:53:41;;;;;;;;;;;;;;;;;;5037611;28;20269;-86
2022/11/23 10:56:10;;;;;;;;;;;;;;;;;;5035949;28;19923;-85
2022/11/23 10:58:43;;;;;;;;;;;;;;;;;;5035597;28;19921;-86
2022/11/23 11:01:17;;;;;;;;;;;;;;;;;;5037521;28;20384;-86
2022/11/23 11:03:43;;;;;;;;;;;;;;;;;;5019262;28;19921;-87
2022/11/23 11:06:09;;;;;;;;;;;;;;;;;;5019757;28;19924;-86
2022/11/23 11:08:36;;;;;;;;;;;;;;;;;;5030302;28;20013;-86
2022/11/23 11:11:20;;;;;;;;;;;;;;;;;;5042429;28;19917;-87
2022/11/23 11:13:46;;;;;;;;;;;;;;;;;;5041548;28;19928;-88
2022/11/23 11:16:26;;;;;;;;;;;;;;;;;;5019578;28;19917;-86
2022/11/23 11:18:52;;;;;;;;;;;;;;;;;;5037939;28;19948;-87
2022/11/23 11:21:34;;;;;;;;;;;;;;;;;;5036652;28;19924;-88
2022/11/23 11:24:01;;;;;;;;;;;;;;;;;;5022534;28;20308;-88
2022/11/23 11:26:27;;;;;;;;;;;;;;;;;;5022747;28;19924;-90
2022/11/23 11:29:01;;;;;;;;;;;;;;;;;;5019855;28;19928;-87
2022/11/23 11:31:36;;;;;;;;;;;;;;;;;;5024481;28;20332;-88
2022/11/23 11:34:22;;;;;;;;;;;;;;;;;;5023538;28;20472;-87
2022/11/23 11:37:08;;;;;;;;;;;;;;;;;;5040498;28;19921;-86
2022/11/23 11:39:52;;;;;;;;;;;;;;;;;;5010411;28;20013;-89
2022/11/23 11:42:19;;;;;;;;;;;;;;;;;;5019073;28;19917;-88
2022/11/23 11:44:46;;;;;;;;;;;;;;;;;;5016768;28;19925;-89
2022/11/23 11:47:27;;;;;;;;;;;;;;;;;;5014216;28;19928;-87
2022/11/23 11:49:55;;;;;;;;;;;;;;;;;;5015408;28;19921;-87
2022/11/23 11:52:23;;;;;;;;;;;;;;;;;;5014140;28;19918;-86
2022/11/23 11:54:52;;;;;;;;;;;;;;;;;;5019116;28;19972;-88
2022/11/23 11:57:23;;;;;;;;;;;;;;;;;;5021926;28;19917;-86
2022/11/23 11:59:51;;;;;;;;;;;;;;;;;;5021474;28;19944;-87
2022/11/23 12:02:20;;;;;;;;;;;;;;;;;;5018010;28;20000;-86
2022/11/23 12:04:45;;;;;;;;;;;;;;;;;;5017441;28;19921;-87
2022/11/23 12:07:46;;;;;;;;;;;;;;;;;;5018085;28;20355;-87
2022/11/23 12:10:15;;;;;;;;;;;;;;;;;;4938180;29;19918;-87
2022/11/23 12:12:41;;;;;;;;;;;;;;;;;;5004312;28;19964;-87
2022/11/23 12:15:15;;;;;;;;;;;;;;;;;;5014222;28;19917;-88
2022/11/23 12:17:49;;;;;;;;;;;;;;;;;;5016310;28;19917;-85
2022/11/23 12:20:40;;;;;;;;;;;;;;;;;;5015679;28;19921;-87
2022/11/23 12:23:22;;;;;;;;;;;;;;;;;;4985897;28;20017;-85
2022/11/23 12:25:57;;;;;;;;;;;;;;;;;;5018852;28;19921;-85
2022/11/23 12:28:44;;;;;;;;;;;;;;;;;;5006382;28;19932;-86
2022/11/23 12:31:13;;;;;;;;;;;;;;;;;;5010718;28;19987;-87
2022/11/23 12:33:44;;;;;;;;;;;;;;;;;;5013897;28;19989;-86
2022/11/23 12:36:22;;;;;;;;;;;;;;;;;;5020368;28;19944;-88
2022/11/23 12:38:51;;;;;;;;;;;;;;;;;;5021918;28;20371;-88
2022/11/23 12:41:18;;;;;;;;;;;;;;;;;;5023662;28;19929;-86
2022/11/23 12:43:44;;;;;;;;;;;;;;;;;;5014684;28;19929;-86
2022/11/23 12:46:12;;;;;;;;;;;;;;;;;;5011108;28;19926;-87
2022/11/23 12:48:47;;;;;;;;;;;;;;;;;;5008662;28;19952;-87
2022/11/23 12:51:15;;;;;;;;;;;;;;;;;;4998282;28;19930;-85
2022/11/23 12:53:41;;;;;;;;;;;;;;;;;;5013708;28;20025;-85
2022/11/23 12:56:42;;;;;;;;;;;;;;;;;;4996613;28;20032;-87
2022/11/23 12:59:09;;;;;;;;;;;;;;;;;;4968441;28;20694;-87
2022/11/23 13:01:40;;;;;;;;;;;;;;;;;;5005314;28;19984;-89
2022/11/23 13:04:24;;;;;;;;;;;;;;;;;;5004454;28;19992;-90
2022/11/23 13:07:00;;;;;;;;;;;;;;;;;;5003185;28;19932;-86
2022/11/23 13:09:28;;;;;;;;;;;;;;;;;;4999168;28;19928;-87
2022/11/23 13:12:13;;;;;;;;;;;;;;;;;;4997720;28;19933;-86
2022/11/23 13:14:57;;;;;;;;;;;;;;;;;;5001125;28;19925;-85
2022/11/23 13:17:41;;;;;;;;;;;;;;;;;;5001805;28;20746;-87
2022/11/23 13:20:29;;;;;;;;;;;;;;;;;;4999816;28;19922;-87
2022/11/23 13:22:58;;;;;;;;;;;;;;;;;;4999431;28;19972;-87
2022/11/23 13:25:24;;;;;;;;;;;;;;;;;;5000725;28;19921;-86
2022/11/23 13:27:49;;;;;;;;;;;;;;;;;;4999622;28;20356;-86
2022/11/23 13:30:33;;;;;;;;;;;;;;;;;;4998701;28;20451;-87
2022/11/23 13:32:59;;;;;;;;;;;;;;;;;;5003023;28;19956;-86
2022/11/23 13:35:24;;;;;;;;;;;;;;;;;;4996879;28;19929;-87
2022/11/23 13:37:56;;;;;;;;;;;;;;;;;;4997402;28;19993;-86
2022/11/23 13:40:22;;;;;;;;;;;;;;;;;;5010730;28;19933;-86
2022/11/23 13:42:49;;;;;;;;;;;;;;;;;;5002107;28;19921;-87
2022/11/23 13:45:20;;;;;;;;;;;;;;;;;;5001964;28;19979;-87
2022/11/23 13:48:07;;;;;;;;;;;;;;;;;;5018345;28;19925;-88
2022/11/23 13:50:34;;;;;;;;;;;;;;;;;;5012738;28;19928;-87
2022/11/23 13:53:00;;;;;;;;;;;;;;;;;;5023227;28;20372;-87
2022/11/23 13:55:38;;;;;;;;;;;;;;;;;;5011261;28;19921;-87
2022/11/23 13:58:25;;;;;;;;;;;;;;;;;;5011015;28;20027;-86
2022/11/23 14:00:54;;;;;;;;;;;;;;;;;;5019418;28;20413;-86
2022/11/23 14:03:38;;;;;;;;;;;;;;;;;;5018080;28;19983;-87
2022/11/23 14:06:09;;;;;;;;;;;;;;;;;;5018241;28;19929;-86
2022/11/23 14:08:38;;;;;;;;;;;;;;;;;;5007610;28;20187;-86
2022/11/23 14:11:16;;;;;;;;;;;;;;;;;;5029901;28;19925;-87
2022/11/23 14:13:47;;;;;;;;;;;;;;;;;;5028016;28;19932;-88
2022/11/23 14:16:17;;;;;;;;;;;;;;;;;;5028051;28;20521;-87
2022/11/23 14:19:08;;;;;;;;;;;;;;;;;;5020276;28;19931;-88
2022/11/23 14:21:37;;;;;;;;;;;;;;;;;;5026543;28;20019;-88
2022/11/23 14:24:26;;;;;;;;;;;;;;;;;;5029422;28;20607;-88
2022/11/23 14:27:00;;;;;;;;;;;;;;;;;;5016230;28;19928;-87
2022/11/23 14:29:26;;;;;;;;;;;;;;;;;;5029024;28;19924;-88
2022/11/23 14:32:01;;;;;;;;;;;;;;;;;;5029608;28;19928;-86
2022/11/23 14:34:39;;;;;;;;;;;;;;;;;;5039856;28;19929;-86
2022/11/23 14:37:08;;;;;;;;;;;;;;;;;;5013957;28;19924;-87
2022/11/23 14:39:52;;;;;;;;;;;;;;;;;;5033510;28;19932;-86
2022/11/23 14:42:19;;;;;;;;;;;;;;;;;;5031469;28;19928;-86
2022/11/23 14:44:46;;;;;;;;;;;;;;;;;;5028427;28;20434;-86
2022/11/23 14:47:12;;;;;;;;;;;;;;;;;;5028004;28;19920;-87
2022/11/23 14:49:47;;;;;;;;;;;;;;;;;;5019855;28;20340;-87
2022/11/23 14:52:15;;;;;;;;;;;;;;;;;;5029066;28;19921;-87
2022/11/23 14:54:45;;;;;;;;;;;;;;;;;;5029433;28;20036;-86
2022/11/23 14:57:11;;;;;;;;;;;;;;;;;;5029050;28;19928;-87
2022/11/23 14:59:38;;;;;;;;;;;;;;;;;;5029351;28;20359;-86
2022/11/23 15:02:10;;;;;;;;;;;;;;;;;;5031727;28;19916;-88
2022/11/23 15:04:49;;;;;;;;;;;;;;;;;;5026543;28;19925;-88
2022/11/23 15:07:16;;;;;;;;;;;;;;;;;;5030526;28;20426;-88
2022/11/23 15:09:50;;;;;;;;;;;;;;;;;;5011658;28;20004;-87
2022/11/23 15:12:23;;;;;;;;;;;;;;;;;;5033271;28;19921;-89
2022/11/23 15:14:49;;;;;;;;;;;;;;;;;;5014532;28;19928;-87
2022/11/23 15:17:16;;;;;;;;;;;;;;;;;;5032833;28;19925;-86
2022/11/23 15:19:42;;;;;;;;;;;;;;;;;;5032429;28;19925;-86
2022/11/23 15:22:15;;;;;;;;;;;;;;;;;;5032328;28;20284;-85
2022/11/23 15:24:40;;;;;;;;;;;;;;;;;;5027356;28;20292;-86
2022/11/23 15:27:09;;;;;;;;;;;;;;;;;;5027156;28;19925;-89
2022/11/23 15:29:35;;;;;;;;;;;;;;;;;;5007852;28;19971;-88
2022/11/23 15:32:03;;;;;;;;;;;;;;;;;;5028717;28;20252;-86
2022/11/23 15:34:29;;;;;;;;;;;;;;;;;;5032340;28;19933;-89
2022/11/23 15:36:55;;;;;;;;;;;;;;;;;;5000871;28;19926;-89
2022/11/23 15:39:22;;;;;;;;;;;;;;;;;;5031892;28;20414;-89
2022/11/23 15:41:49;;;;;;;;;;;;;;;;;;5015224;28;20384;-87
2022/11/23 15:44:17;;;;;;;;;;;;;;;;;;5029438;28;19925;-88
2022/11/23 15:46:45;;;;;;;;;;;;;;;;;;5032705;28;20287;-89
2022/11/23 15:49:13;;;;;;;;;;;;;;;;;;5018296;28;19917;-87
2022/11/23 15:51:39;;;;;;;;;;;;;;;;;;5034551;28;19917;-86
2022/11/23 15:54:10;;;;;;;;;;;;;;;;;;5034575;28;19932;-88
2022/11/23 15:56:37;;;;;;;;;;;;;;;;;;5033924;28;19956;-88
2022/11/23 15:59:22;;;;;;;;;;;;;;;;;;5038279;28;19921;-88
2022/11/23 16:01:48;;;;;;;;;;;;;;;;;;5035262;28;19924;-88
2022/11/23 16:04:44;;;;;;;;;;;;;;;;;;5034904;28;20125;-87
2022/11/23 16:07:17;;;;;;;;;;;;;;;;;;5042333;28;19924;-87
2022/11/23 16:09:47;;;;;;;;;;;;;;;;;;5044997;28;19979;-87
2022/11/23 16:12:39;;;;;;;;;;;;;;;;;;5042072;28;20332;-89
2022/11/23 16:15:24;;;;;;;;;;;;;;;;;;5034108;28;20486;-85
2022/11/23 16:17:49;;;;;;;;;;;;;;;;;;5016992;28;19917;-87
2022/11/23 16:20:14;;;;;;;;;;;;;;;;;;5034586;28;19921;-89
2022/11/23 16:22:46;;;;;;;;;;;;;;;;;;5034646;28;20360;-86
2022/11/23 16:25:15;;;;;;;;;;;;;;;;;;5031435;28;19917;-87
2022/11/23 16:27:40;;;;;;;;;;;;;;;;;;5033770;28;19971;-86
2022/11/23 16:30:21;;;;;;;;;;;;;;;;;;5034625;28;19924;-85
2022/11/23 16:32:46;;;;;;;;;;;;;;;;;;5034755;28;19925;-85
2022/11/23 16:35:19;;;;;;;;;;;;;;;;;;5034523;28;20051;-86
2022/11/23 16:37:45;;;;;;;;;;;;;;;;;;5017331;28;20363;-88
2022/11/23 16:40:11;;;;;;;;;;;;;;;;;;5034575;28;19972;-88
2022/11/23 16:42:36;;;;;;;;;;;;;;;;;;5027424;28;20301;-87
2022/11/23 16:45:02;;;;;;;;;;;;;;;;;;5041846;28;19921;-87
2022/11/23 16:47:28;;;;;;;;;;;;;;;;;;5031028;28;20383;-87
2022/11/23 16:49:54;;;;;;;;;;;;;;;;;;5031002;28;19920;-86
2022/11/23 16:52:20;;;;;;;;;;;;;;;;;;5031339;28;20381;-86
2022/11/23 16:54:46;;;;;;;;;;;;;;;;;;5029752;28;19917;-86
2022/11/23 16:57:16;;;;;;;;;;;;;;;;;;5030704;28;19921;-85